createdAt,value
2019-04-06T00:01:54.106Z,7.50
2019-04-06T00:04:38.896Z,7.60
2019-04-06T00:07:23.467Z,7.60
2019-04-06T00:10:08.087Z,7.70
2019-04-06T00:12:52.992Z,7.70
2019-04-06T00:15:37.592Z,7.60
2019-04-06T00:18:22.793Z,7.60
2019-04-06T00:21:07.337Z,7.70
2019-04-06T00:23:52.029Z,7.70
2019-04-06T00:26:36.558Z,7.70
2019-04-06T00:29:21.180Z,7.70
2019-04-06T00:32:13.169Z,7.80
2019-04-06T00:34:57.781Z,7.80
2019-04-06T00:37:42.694Z,7.80
2019-04-06T00:40:27.218Z,7.70
2019-04-06T00:43:12.535Z,7.80
2019-04-06T00:45:57.484Z,7.80
2019-04-06T00:48:41.974Z,7.80
2019-04-06T00:51:26.859Z,7.80
2019-04-06T00:54:11.834Z,7.80
2019-04-06T00:56:56.545Z,7.90
2019-04-06T00:59:40.949Z,7.90
2019-04-06T01:02:25.830Z,7.90
2019-04-06T01:05:10.922Z,7.90
2019-04-06T01:07:55.776Z,7.90
2019-04-06T01:10:40.793Z,7.90
2019-04-06T01:13:25.298Z,7.90
2019-04-06T01:16:10.601Z,8.00
2019-04-06T01:18:55.578Z,8.00
2019-04-06T01:21:40.058Z,8.00
2019-04-06T01:24:24.958Z,8.10
2019-04-06T01:27:10.181Z,8.10
2019-04-06T01:29:54.825Z,8.10
2019-04-06T01:32:39.514Z,8.20
2019-04-06T01:35:24.170Z,8.20
2019-04-06T01:38:08.740Z,8.30
2019-04-06T01:40:53.467Z,8.30
2019-04-06T01:43:38.310Z,8.40
2019-04-06T01:46:23.310Z,8.40
2019-04-06T01:49:08.025Z,8.40
2019-04-06T01:51:53.024Z,8.40
2019-04-06T01:54:37.634Z,8.40
2019-04-06T01:57:22.118Z,8.40
2019-04-06T02:00:09.523Z,8.40
2019-04-06T02:02:56.010Z,8.40
2019-04-06T02:05:41.002Z,8.50
2019-04-06T02:08:25.594Z,8.50
2019-04-06T02:11:10.210Z,8.50
2019-04-06T02:13:54.919Z,8.50
2019-04-06T02:16:39.723Z,8.50
2019-04-06T02:19:24.649Z,8.40
2019-04-06T02:22:09.374Z,8.40
2019-04-06T02:24:54.011Z,8.40
2019-04-06T02:27:38.583Z,8.50
2019-04-06T02:30:27.743Z,8.40
2019-04-06T02:33:25.785Z,8.40
2019-04-06T02:36:12.299Z,8.40
2019-04-06T02:39:01.651Z,8.40
2019-04-06T02:41:48.447Z,8.40
2019-04-06T02:44:33.184Z,8.40
2019-04-06T02:47:18.236Z,8.50
2019-04-06T02:50:06.726Z,8.40
2019-04-06T02:52:51.493Z,8.40
2019-04-06T02:55:36.378Z,8.50
2019-04-06T02:58:23.194Z,8.50
2019-04-06T03:01:08.026Z,8.40
2019-04-06T03:03:53.238Z,8.40
2019-04-06T03:06:38.254Z,8.40
2019-04-06T03:09:23.255Z,8.40
2019-04-06T03:12:08.303Z,8.40
2019-04-06T03:14:53.299Z,8.30
2019-04-06T03:17:38.227Z,8.30
2019-04-06T03:20:23.178Z,8.30
2019-04-06T03:23:08.130Z,8.30
2019-04-06T03:25:53.255Z,8.30
2019-04-06T03:28:38.446Z,8.40
2019-04-06T03:31:27.006Z,8.40
2019-04-06T03:34:09.922Z,8.30
2019-04-06T03:36:54.887Z,8.40
2019-04-06T03:39:40.135Z,8.40
2019-04-06T03:42:25.153Z,8.40
2019-04-06T03:45:09.964Z,8.40
2019-04-06T03:47:55.133Z,8.40
2019-04-06T03:50:39.609Z,8.40
2019-04-06T03:53:24.563Z,8.40
2019-04-06T03:56:09.410Z,8.50
2019-04-06T03:58:53.980Z,8.40
2019-04-06T04:01:38.634Z,8.40
2019-04-06T04:04:24.195Z,8.40
2019-04-06T04:07:09.161Z,8.40
2019-04-06T04:09:54.189Z,8.40
2019-04-06T04:12:39.181Z,8.40
2019-04-06T04:15:24.229Z,8.30
2019-04-06T04:18:09.672Z,8.30
2019-04-06T04:20:54.453Z,8.30
2019-04-06T04:23:39.702Z,8.30
2019-04-06T04:26:24.353Z,8.30
2019-04-06T04:29:09.363Z,8.30
2019-04-06T04:31:54.073Z,8.30
2019-04-06T04:34:39.153Z,8.30
2019-04-06T04:37:24.408Z,8.30
2019-04-06T04:40:09.405Z,8.30
2019-04-06T04:42:54.371Z,8.30
2019-04-06T04:45:39.303Z,8.30
2019-04-06T04:48:24.285Z,8.30
2019-04-06T04:51:09.658Z,8.30
2019-04-06T04:53:54.299Z,8.30
2019-04-06T04:56:39.002Z,8.30
2019-04-06T04:59:24.213Z,8.30
2019-04-06T05:02:09.122Z,8.30
2019-04-06T05:04:53.602Z,8.30
2019-04-06T05:07:38.537Z,8.30
2019-04-06T05:10:23.557Z,8.40
2019-04-06T05:13:08.526Z,8.40
2019-04-06T05:15:57.233Z,8.50
2019-04-06T05:18:42.528Z,8.50
2019-04-06T05:21:27.316Z,8.60
2019-04-06T05:24:12.130Z,8.60
2019-04-06T05:26:57.015Z,8.70
2019-04-06T05:29:42.164Z,8.80
2019-04-06T05:32:27.212Z,8.80
2019-04-06T05:35:12.240Z,8.90
2019-04-06T05:37:57.248Z,9.00
2019-04-06T05:40:42.393Z,9.00
2019-04-06T05:43:27.435Z,9.10
2019-04-06T05:46:12.869Z,9.10
2019-04-06T05:48:57.718Z,9.10
2019-04-06T05:51:42.473Z,9.10
2019-04-06T05:54:27.622Z,9.20
2019-04-06T05:57:12.660Z,9.20
2019-04-06T05:59:58.110Z,9.30
2019-04-06T06:02:43.097Z,9.30
2019-04-06T06:05:27.882Z,9.40
2019-04-06T06:08:12.437Z,9.40
2019-04-06T06:10:57.227Z,9.50
2019-04-06T06:13:42.357Z,9.50
2019-04-06T06:16:27.263Z,9.50
2019-04-06T06:19:12.606Z,9.60
2019-04-06T06:21:57.679Z,9.60
2019-04-06T06:24:42.759Z,9.70
2019-04-06T06:27:27.684Z,9.80
2019-04-06T06:30:13.264Z,9.90
2019-04-06T06:32:58.117Z,9.90
2019-04-06T06:35:43.163Z,10.00
2019-04-06T06:38:28.389Z,10.10
2019-04-06T06:41:13.288Z,10.10
2019-04-06T06:43:58.088Z,10.10
2019-04-06T06:46:43.434Z,10.20
2019-04-06T06:49:27.972Z,10.20
2019-04-06T06:52:12.700Z,10.20
2019-04-06T06:54:57.852Z,10.20
2019-04-06T06:57:43.351Z,10.20
2019-04-06T07:00:28.423Z,10.20
2019-04-06T07:03:13.471Z,10.20
2019-04-06T07:05:58.412Z,10.30
2019-04-06T07:08:43.752Z,10.20
2019-04-06T07:11:28.508Z,10.30
2019-04-06T07:14:13.209Z,10.30
2019-04-06T07:16:58.179Z,10.30
2019-04-06T07:19:43.720Z,10.30
2019-04-06T07:22:28.538Z,10.40
2019-04-06T07:25:14.012Z,10.40
2019-04-06T07:27:58.935Z,10.40
2019-04-06T07:30:43.910Z,10.50
2019-04-06T07:33:29.171Z,10.60
2019-04-06T07:36:14.223Z,10.70
2019-04-06T07:38:59.375Z,10.90
2019-04-06T07:41:44.398Z,10.90
2019-04-06T07:44:29.113Z,11.00
2019-04-06T07:47:14.086Z,11.10
2019-04-06T07:49:59.138Z,11.20
2019-04-06T07:52:44.193Z,11.20
2019-04-06T07:55:29.444Z,11.30
2019-04-06T07:58:14.487Z,11.30
2019-04-06T08:00:59.350Z,11.40
2019-04-06T08:03:44.451Z,11.50
2019-04-06T08:06:29.873Z,11.50
2019-04-06T08:09:14.865Z,11.60
2019-04-06T08:11:59.905Z,11.60
2019-04-06T08:14:44.886Z,11.70
2019-04-06T08:17:29.928Z,11.70
2019-04-06T08:20:14.906Z,11.80
2019-04-06T08:22:59.904Z,11.90
2019-04-06T08:25:45.038Z,11.90
2019-04-06T08:28:29.721Z,12.00
2019-04-06T08:31:14.411Z,12.20
2019-04-06T08:33:59.407Z,12.10
2019-04-06T08:36:44.550Z,12.20
2019-04-06T08:39:29.362Z,12.30
2019-04-06T08:42:14.581Z,12.40
2019-04-06T08:45:00.016Z,12.40
2019-04-06T08:47:45.145Z,12.60
2019-04-06T08:50:30.294Z,12.60
2019-04-06T08:53:15.255Z,12.70
2019-04-06T08:56:00.165Z,12.80
2019-04-06T08:58:45.292Z,12.80
2019-04-06T09:01:29.906Z,12.90
2019-04-06T09:04:14.442Z,13.00
2019-04-06T09:06:59.336Z,12.90
2019-04-06T09:09:44.105Z,13.10
2019-04-06T09:12:29.358Z,13.10
2019-04-06T09:15:15.772Z,13.00
2019-04-06T09:18:00.644Z,12.80
2019-04-06T09:20:45.930Z,12.80
2019-04-06T09:23:31.063Z,12.90
2019-04-06T09:26:16.576Z,13.10
2019-04-06T09:29:01.997Z,13.20
2019-04-06T09:31:46.790Z,13.40
2019-04-06T09:34:31.481Z,13.70
2019-04-06T09:37:16.716Z,14.00
2019-04-06T09:40:03.342Z,14.10
2019-04-06T09:42:48.062Z,14.20
2019-04-06T09:45:37.326Z,14.30
2019-04-06T09:48:27.213Z,14.50
2019-04-06T09:51:16.479Z,14.70
2019-04-06T09:54:07.348Z,14.70
2019-04-06T09:57:10.927Z,14.60
2019-04-06T10:00:00.802Z,14.60
2019-04-06T10:02:47.643Z,14.90
2019-04-06T10:05:40.022Z,15.00
2019-04-06T10:08:29.045Z,15.10
2019-04-06T10:11:18.647Z,15.10
2019-04-06T10:14:07.672Z,15.10
2019-04-06T10:16:56.874Z,15.00
2019-04-06T10:19:43.934Z,14.80
2019-04-06T10:22:33.138Z,14.70
2019-04-06T10:25:20.130Z,14.70
2019-04-06T10:28:23.578Z,14.80
2019-04-06T10:31:26.615Z,14.80
2019-04-06T10:34:18.607Z,14.80
2019-04-06T10:37:08.222Z,14.80
2019-04-06T10:39:58.536Z,14.90
2019-04-06T10:43:01.746Z,15.10
2019-04-06T10:45:57.815Z,15.10
2019-04-06T10:48:44.873Z,15.10
2019-04-06T10:51:31.692Z,15.10
2019-04-06T10:54:21.316Z,15.20
2019-04-06T10:57:13.923Z,15.30
2019-04-06T11:00:06.475Z,15.50
2019-04-06T11:03:02.827Z,15.60
2019-04-06T11:05:55.691Z,15.60
2019-04-06T11:08:51.016Z,15.70
2019-04-06T11:11:37.601Z,15.80
2019-04-06T11:14:24.401Z,15.90
2019-04-06T11:17:27.080Z,16.10
2019-04-06T11:20:16.281Z,16.30
2019-04-06T11:23:06.011Z,16.50
2019-04-06T11:26:10.748Z,16.60
2019-04-06T11:29:15.431Z,16.50
2019-04-06T11:32:18.618Z,16.60
2019-04-06T11:35:09.935Z,16.70
2019-04-06T11:38:13.179Z,16.80
2019-04-06T11:40:59.836Z,17.00
2019-04-06T11:43:52.828Z,17.00
2019-04-06T11:46:52.290Z,17.20
2019-04-06T11:49:39.346Z,17.40
2019-04-06T11:52:35.155Z,17.50
2019-04-06T11:55:38.982Z,17.70
2019-04-06T11:58:31.416Z,17.80
2019-04-06T12:01:27.769Z,17.90
2019-04-06T12:04:14.587Z,18.10
2019-04-06T12:07:19.276Z,18.30
2019-04-06T12:10:06.813Z,18.40
2019-04-06T12:12:55.683Z,18.40
2019-04-06T12:15:50.606Z,18.50
2019-04-06T12:18:37.582Z,18.60
2019-04-06T12:21:36.163Z,18.80
2019-04-06T12:24:34.943Z,19.00
2019-04-06T12:27:23.978Z,19.10
2019-04-06T12:30:37.752Z,19.20
2019-04-06T12:33:24.843Z,19.40
2019-04-06T12:36:27.473Z,19.50
2019-04-06T12:39:14.434Z,19.50
2019-04-06T12:42:10.478Z,19.60
2019-04-06T12:45:03.268Z,19.60
2019-04-06T12:48:07.149Z,19.70
2019-04-06T12:51:05.990Z,19.90
2019-04-06T12:53:52.784Z,20.10
2019-04-06T12:56:57.419Z,20.40
2019-04-06T12:59:53.377Z,20.60
2019-04-06T13:02:58.590Z,21.00
2019-04-06T13:05:57.641Z,21.30
2019-04-06T13:09:01.364Z,21.50
2019-04-06T13:11:54.211Z,22.10
2019-04-06T13:14:46.833Z,22.80
2019-04-06T13:17:36.094Z,23.40
2019-04-06T13:20:22.876Z,23.70
2019-04-06T13:23:26.268Z,23.80
2019-04-06T13:26:13.049Z,24.10
2019-04-06T13:29:02.338Z,23.80
2019-04-06T13:31:51.965Z,23.60
2019-04-06T13:34:47.822Z,23.50
2019-04-06T13:37:37.010Z,23.50
2019-04-06T13:40:32.864Z,23.40
2019-04-06T13:43:19.813Z,23.10
2019-04-06T13:46:06.810Z,23.40
2019-04-06T13:48:53.542Z,24.20
2019-04-06T13:51:51.911Z,24.80
2019-04-06T13:54:44.230Z,25.00
2019-04-06T13:57:47.378Z,24.70
2019-04-06T14:00:50.570Z,24.30
2019-04-06T14:03:55.162Z,24.50
2019-04-06T14:06:58.303Z,24.90
2019-04-06T14:09:56.735Z,25.50
2019-04-06T14:12:43.741Z,25.70
2019-04-06T14:15:36.159Z,26.00
2019-04-06T14:18:22.522Z,26.00
2019-04-06T14:21:14.964Z,25.70
2019-04-06T14:24:01.693Z,25.50
2019-04-06T14:27:03.437Z,25.50
2019-04-06T14:29:52.592Z,25.50
2019-04-06T14:32:45.666Z,25.30
2019-04-06T14:35:48.547Z,25.30
2019-04-06T14:38:46.869Z,25.30
2019-04-06T14:41:49.895Z,25.20
2019-04-06T14:44:37.270Z,25.50
2019-04-06T14:47:32.913Z,25.60
2019-04-06T14:50:19.920Z,25.40
2019-04-06T14:53:23.552Z,24.80
2019-04-06T14:56:10.442Z,24.60
2019-04-06T14:58:59.737Z,24.30
2019-04-06T15:01:57.185Z,24.30
2019-04-06T15:04:51.217Z,24.40
2019-04-06T15:07:38.042Z,24.50
2019-04-06T15:10:40.935Z,24.40
2019-04-06T15:13:42.287Z,24.30
2019-04-06T15:16:41.364Z,24.50
2019-04-06T15:19:30.667Z,24.60
2019-04-06T15:22:20.016Z,24.40
2019-04-06T15:26:31.759Z,24.30
2019-04-06T15:29:21.592Z,23.90
2019-04-06T15:32:25.105Z,24.00
2019-04-06T15:35:18.532Z,24.10
2019-04-06T15:38:18.056Z,23.90
2019-04-06T15:41:13.981Z,24.30
2019-04-06T15:44:17.450Z,24.90
2019-04-06T15:47:17.015Z,25.40
2019-04-06T15:50:16.091Z,25.80
2019-04-06T15:53:08.689Z,26.20
2019-04-06T15:55:58.142Z,26.60
2019-04-06T15:58:45.010Z,26.80
2019-04-06T16:01:35.036Z,26.90
2019-04-06T16:04:24.716Z,26.70
2019-04-06T16:07:11.820Z,26.60
2019-04-06T16:10:07.583Z,26.80
2019-04-06T16:13:11.131Z,27.40
2019-04-06T16:16:01.469Z,27.90
2019-04-06T16:18:48.505Z,27.10
2019-04-06T16:21:38.123Z,26.80
2019-04-06T16:24:37.448Z,26.10
2019-04-06T16:27:39.901Z,25.90
2019-04-06T16:30:27.091Z,25.80
2019-04-06T16:33:14.476Z,25.70
2019-04-06T16:36:01.967Z,25.80
2019-04-06T16:39:00.466Z,25.80
2019-04-06T16:41:50.476Z,25.80
2019-04-06T16:44:43.531Z,25.50
2019-04-06T16:47:43.455Z,24.90
2019-04-06T16:50:33.003Z,24.20
2019-04-06T16:53:20.289Z,23.30
2019-04-06T16:56:10.364Z,22.60
2019-04-06T16:58:59.986Z,22.00
2019-04-06T17:01:47.062Z,21.30
2019-04-06T17:04:34.220Z,20.90
2019-04-06T17:07:36.206Z,20.50
2019-04-06T17:10:23.804Z,20.10
2019-04-06T17:13:14.297Z,19.80
2019-04-06T17:16:18.012Z,19.60
2019-04-06T17:19:14.383Z,19.30
2019-04-06T17:22:18.391Z,18.90
2019-04-06T17:25:23.339Z,18.70
2019-04-06T17:28:13.633Z,18.60
2019-04-06T17:31:11.010Z,18.30
2019-04-06T17:34:01.312Z,18.20
2019-04-06T17:36:54.967Z,18.00
2019-04-06T17:39:45.135Z,17.80
2019-04-06T17:42:41.625Z,17.70
2019-04-06T17:45:28.684Z,17.50
2019-04-06T17:48:24.997Z,17.40
2019-04-06T17:51:12.104Z,17.20
2019-04-06T17:54:14.496Z,17.10
2019-04-06T17:57:04.913Z,17.00
2019-04-06T17:59:57.875Z,16.80
2019-04-06T18:02:50.821Z,16.70
2019-04-06T18:05:37.313Z,16.50
2019-04-06T18:08:33.372Z,16.40
2019-04-06T18:11:20.605Z,16.30
2019-04-06T18:14:06.660Z,16.10
2019-04-06T18:16:51.919Z,16.00
2019-04-06T18:19:38.399Z,15.80
2019-04-06T18:22:25.832Z,15.70
2019-04-06T18:25:12.372Z,15.60
2019-04-06T18:27:58.435Z,15.50
2019-04-06T18:30:46.078Z,15.40
2019-04-06T18:33:31.231Z,15.30
2019-04-06T18:36:16.721Z,15.20
2019-04-06T18:39:07.233Z,15.10
2019-04-06T18:41:52.511Z,15.00
2019-04-06T18:44:37.920Z,14.90
2019-04-06T18:47:24.742Z,14.80
